Terminal Aerodrome Forecast
Issued by NWS Spokane, WA

Home | Current Version | Previous Version | Text Only | Print | Product List | Glossary On
Versions: 1 2 3 4 5 6 7 8 9 10 11 12 13 14 15 16 17 18 19 20 21 22 23 24 25 26 27 28 29 30 31 32 33 34
000
FTUS46 KOTX 221943 AAB
TAFEAT
TAF AMD
KEAT 221943Z 2220/2318 VRB03KT 1/2SM -SN FG BKN007 OVC010
     FM222100 VRB04KT 1 1/2SM -SNRA OVC008
     FM222200 30003KT 3SM BR OVC015
     FM230500 VRB02KT 1/2SM FG VV003
     FM231200 31002KT 4SM BR OVC007=

USA.gov is the U.S. government's official web portal to all federal, state and local government web resources and services.